createdAt,value
2022-08-08T00:03:31.675Z,2.88
2022-08-08T00:08:37.077Z,2.53
2022-08-08T00:14:17.549Z,2.70
2022-08-08T00:19:16.083Z,2.45
2022-08-08T00:24:19.684Z,3.13
2022-08-08T00:29:47.210Z,3.00
2022-08-08T00:35:20.579Z,3.47
2022-08-08T00:41:12.952Z,2.70
2022-08-08T00:45:57.588Z,3.17
2022-08-08T00:51:00.030Z,3.60
2022-08-08T00:56:20.773Z,3.42
2022-08-08T01:06:48.221Z,3.17
2022-08-08T01:12:03.255Z,3.53
2022-08-08T01:17:04.879Z,3.35
2022-08-08T01:22:23.342Z,4.03
2022-08-08T01:27:44.666Z,3.80
2022-08-08T01:32:47.642Z,4.13
2022-08-08T01:38:03.857Z,3.55
2022-08-08T01:43:24.426Z,3.88
2022-08-08T01:48:48.104Z,4.30
2022-08-08T01:55:25.695Z,4.20
2022-08-08T01:59:38.283Z,4.35
2022-08-08T02:05:02.135Z,4.07
2022-08-08T02:10:11.909Z,4.13
2022-08-08T02:15:21.949Z,5.10
2022-08-08T02:21:01.612Z,4.53
2022-08-08T02:26:08.163Z,4.65
2022-08-08T02:31:58.479Z,4.72
2022-08-08T02:36:51.421Z,4.82
2022-08-08T02:42:10.628Z,4.63
2022-08-08T02:47:18.233Z,5.45
2022-08-08T02:52:34.862Z,5.95
2022-08-08T02:57:57.155Z,5.05
2022-08-08T03:03:10.654Z,5.30
2022-08-08T03:08:21.286Z,5.15
2022-08-08T03:16:04.025Z,5.07
2022-08-08T03:19:33.193Z,5.15
2022-08-08T03:24:34.733Z,5.10
2022-08-08T03:29:55.258Z,4.90
2022-08-08T03:34:58.717Z,5.00
2022-08-08T03:40:03.620Z,5.18
2022-08-08T03:46:07.065Z,5.65
2022-08-08T03:50:37.386Z,5.57
2022-08-08T03:55:57.316Z,4.93
2022-08-08T04:01:22.936Z,5.10
2022-08-08T04:06:22.823Z,4.93
2022-08-08T04:11:25.331Z,4.78
2022-08-08T04:16:38.849Z,4.57
2022-08-08T04:21:45.704Z,5.47
2022-08-08T04:26:57.194Z,5.30
2022-08-08T04:32:00.568Z,5.32
2022-08-08T04:37:03.835Z,4.95
2022-08-08T04:42:05.798Z,5.13
2022-08-08T04:47:07.411Z,5.38
2022-08-08T04:52:13.947Z,5.47
2022-08-08T04:57:15.877Z,5.40
2022-08-08T05:02:20.213Z,5.50
2022-08-08T05:07:24.066Z,5.03
2022-08-08T05:12:29.013Z,4.22
2022-08-08T05:17:53.824Z,5.20
2022-08-08T05:22:52.618Z,4.88
2022-08-08T05:27:55.281Z,4.93
2022-08-08T05:32:57.861Z,5.32
2022-08-08T05:38:30.228Z,4.80
2022-08-08T05:43:39.920Z,4.93
2022-08-08T05:48:54.545Z,4.30
2022-08-08T05:54:27.654Z,4.55
2022-08-08T05:59:58.658Z,4.18
2022-08-08T06:04:41.140Z,4.40
2022-08-08T06:09:59.734Z,4.45
2022-08-08T06:15:07.558Z,4.25
2022-08-08T06:25:15.925Z,3.92
2022-08-08T06:30:28.863Z,4.15
2022-08-08T06:36:08.090Z,4.10
2022-08-08T06:40:53.729Z,3.75
2022-08-08T06:45:56.094Z,3.60
2022-08-08T06:50:57.811Z,3.55
2022-08-08T06:56:02.658Z,3.42
2022-08-08T07:01:52.282Z,3.63
2022-08-08T07:06:28.602Z,3.70
2022-08-08T07:11:51.120Z,2.80
2022-08-08T07:17:02.801Z,3.38
2022-08-08T07:22:19.314Z,3.30
2022-08-08T07:27:23.009Z,3.05
2022-08-08T07:32:37.342Z,2.80
2022-08-08T07:37:56.592Z,3.15
2022-08-08T07:43:04.088Z,2.75
2022-08-08T07:48:10.114Z,2.92
2022-08-08T07:53:52.193Z,2.83
2022-08-08T07:58:43.037Z,2.72
2022-08-08T08:03:47.977Z,2.97
2022-08-08T08:08:52.479Z,3.10
2022-08-08T08:14:07.659Z,3.03
2022-08-08T08:19:12.867Z,2.65
2022-08-08T08:24:18.481Z,2.55
2022-08-08T08:29:20.346Z,1.90
2022-08-08T08:34:22.613Z,1.90
2022-08-08T08:39:24.797Z,2.00
2022-08-08T08:44:47.352Z,1.73
2022-08-08T08:49:50.069Z,2.28
2022-08-08T08:54:55.733Z,1.63
2022-08-08T09:00:04.761Z,1.27
2022-08-08T09:05:28.887Z,1.30
2022-08-08T09:10:32.239Z,1.20
2022-08-08T09:15:41.442Z,1.13
2022-08-08T09:21:58.408Z,0.90
2022-08-08T09:26:13.490Z,1.55
2022-08-08T09:31:16.738Z,1.20
2022-08-08T09:36:22.529Z,1.27
2022-08-08T09:42:14.716Z,1.23
2022-08-08T09:48:04.939Z,1.48
2022-08-08T09:52:58.256Z,1.75
2022-08-08T09:57:57.914Z,1.55
2022-08-08T10:03:02.381Z,1.33
2022-08-08T10:08:06.175Z,1.50
2022-08-08T10:13:25.990Z,1.80
2022-08-08T10:18:35.069Z,1.50
2022-08-08T10:23:47.167Z,1.20
2022-08-08T10:28:54.761Z,1.38
2022-08-08T10:34:18.869Z,1.15
2022-08-08T10:39:43.002Z,1.27
2022-08-08T10:44:45.818Z,1.30
2022-08-08T10:50:00.494Z,1.35
2022-08-08T10:55:08.479Z,1.10
2022-08-08T11:00:12.462Z,0.98
2022-08-08T11:05:15.096Z,1.23
2022-08-08T11:10:29.345Z,1.10
2022-08-08T11:15:31.472Z,1.13
2022-08-08T11:20:33.356Z,1.05
2022-08-08T11:25:52.780Z,1.08
2022-08-08T11:30:57.929Z,1.13
2022-08-08T11:36:01.709Z,1.23
2022-08-08T11:41:06.464Z,1.15
2022-08-08T11:46:13.697Z,0.95
2022-08-08T11:51:30.737Z,1.10
2022-08-08T11:56:42.101Z,0.95
2022-08-08T12:01:43.852Z,1.48
2022-08-08T12:06:45.526Z,1.30
2022-08-08T12:11:50.761Z,1.20
2022-08-08T12:16:53.395Z,1.00
2022-08-08T12:22:09.221Z,1.10
2022-08-08T12:27:18.348Z,1.10
2022-08-08T12:32:31.281Z,1.40
2022-08-08T12:37:41.130Z,1.40
2022-08-08T12:42:47.710Z,1.02
2022-08-08T12:48:10.570Z,1.27
2022-08-08T12:58:21.991Z,0.90
2022-08-08T13:03:33.600Z,1.30
2022-08-08T13:08:40.275Z,1.40
2022-08-08T13:13:57.963Z,1.00
2022-08-08T13:19:08.053Z,1.20
2022-08-08T13:24:19.055Z,1.02
2022-08-08T13:29:40.541Z,1.02
2022-08-08T13:34:42.498Z,1.10
2022-08-08T13:39:44.538Z,1.00
2022-08-08T13:44:57.090Z,0.98
2022-08-08T13:50:39.631Z,1.02
2022-08-08T13:55:36.537Z,1.23
2022-08-08T14:00:45.260Z,1.10
2022-08-08T14:06:00.713Z,1.02
2022-08-08T14:11:03.093Z,1.38
2022-08-08T14:16:16.253Z,2.25
2022-08-08T14:21:20.791Z,1.38
2022-08-08T14:26:28.408Z,1.33
2022-08-08T14:32:06.224Z,1.20
2022-08-08T14:36:54.482Z,1.75
2022-08-08T14:41:59.574Z,1.40
2022-08-08T14:47:01.502Z,1.10
2022-08-08T14:52:09.279Z,1.05
2022-08-08T14:57:12.315Z,1.10
2022-08-08T15:02:25.869Z,0.95
2022-08-08T15:07:39.575Z,1.10
2022-08-08T15:17:44.642Z,1.23
2022-08-08T15:22:47.002Z,1.10
2022-08-08T15:28:03.840Z,1.10
2022-08-08T15:33:10.312Z,1.00
2022-08-08T15:38:22.583Z,0.82
2022-08-08T15:43:36.360Z,1.00
2022-08-08T15:48:39.363Z,1.20
2022-08-08T15:53:49.937Z,1.05
2022-08-08T15:58:51.935Z,0.80
2022-08-08T16:03:53.416Z,1.60
2022-08-08T16:09:02.354Z,0.73
2022-08-08T16:14:32.820Z,0.93
2022-08-08T16:19:57.275Z,0.82
2022-08-08T16:24:57.001Z,0.95
2022-08-08T16:30:13.348Z,1.00
2022-08-08T16:35:15.632Z,1.02
2022-08-08T16:40:20.540Z,1.25
2022-08-08T16:46:37.397Z,1.00
2022-08-08T16:50:43.694Z,1.00
2022-08-08T16:55:55.989Z,1.55
2022-08-08T17:00:59.928Z,1.00
2022-08-08T17:06:01.905Z,0.73
2022-08-08T17:11:10.927Z,0.77
2022-08-08T17:16:15.143Z,0.63
2022-08-08T17:21:18.244Z,0.63
2022-08-08T17:26:26.689Z,0.90
2022-08-08T17:31:45.546Z,0.90
2022-08-08T17:37:02.977Z,0.80
2022-08-08T17:42:05.263Z,0.80
2022-08-08T17:47:09.626Z,1.52
2022-08-08T17:52:11.250Z,1.15
2022-08-08T17:57:14.409Z,0.77
2022-08-08T18:02:21.266Z,0.75
2022-08-08T18:08:02.650Z,0.90
2022-08-08T18:12:46.111Z,0.70
2022-08-08T18:18:27.503Z,0.80
2022-08-08T18:23:12.518Z,0.82
2022-08-08T18:28:16.746Z,0.80
2022-08-08T18:34:11.344Z,1.13
2022-08-08T18:38:49.185Z,0.95
2022-08-08T18:43:51.193Z,1.00
2022-08-08T18:48:52.649Z,1.17
2022-08-08T18:54:03.091Z,1.10
2022-08-08T18:59:12.475Z,1.23
2022-08-08T19:04:15.750Z,1.35
2022-08-08T19:09:17.364Z,1.40
2022-08-08T19:14:24.694Z,1.55
2022-08-08T19:19:29.936Z,1.27
2022-08-08T19:24:39.307Z,1.42
2022-08-08T19:29:54.482Z,1.10
2022-08-08T19:34:56.344Z,1.75
2022-08-08T19:39:57.804Z,1.23
2022-08-08T19:45:07.290Z,1.38
2022-08-08T19:50:09.474Z,1.70
2022-08-08T19:55:16.413Z,1.90
2022-08-08T20:00:30.341Z,1.80
2022-08-08T20:06:15.099Z,1.45
2022-08-08T20:10:55.806Z,1.23
2022-08-08T20:16:00.224Z,1.60
2022-08-08T20:21:02.553Z,1.38
2022-08-08T20:26:04.038Z,1.83
2022-08-08T20:31:05.565Z,1.58
2022-08-08T20:36:16.982Z,1.65
2022-08-08T20:41:19.304Z,1.60
2022-08-08T20:46:25.711Z,1.55
2022-08-08T20:51:31.768Z,1.40
2022-08-08T20:57:04.401Z,1.63
2022-08-08T21:02:06.698Z,1.70
2022-08-08T21:07:15.802Z,2.00
2022-08-08T21:12:17.857Z,1.88
2022-08-08T21:17:26.534Z,1.88
2022-08-08T21:22:29.267Z,1.55
2022-08-08T21:27:39.067Z,1.52
2022-08-08T21:32:53.515Z,1.98
2022-08-08T21:37:55.172Z,1.63
2022-08-08T21:42:56.658Z,1.90
2022-08-08T21:48:22.940Z,1.90
2022-08-08T21:54:27.208Z,2.20
2022-08-08T21:58:42.727Z,2.00
2022-08-08T22:03:44.216Z,1.92
2022-08-08T22:08:52.813Z,2.30
2022-08-08T22:13:54.762Z,2.55
2022-08-08T22:18:57.191Z,2.58
2022-08-08T22:23:59.198Z,2.30
2022-08-08T22:29:13.788Z,2.60
2022-08-08T22:34:22.978Z,1.92
2022-08-08T22:39:45.674Z,2.00
2022-08-08T22:44:47.930Z,2.17
2022-08-08T22:49:54.277Z,2.10
2022-08-08T22:55:05.323Z,1.92
2022-08-08T23:00:11.641Z,2.40
2022-08-08T23:05:14.947Z,2.42
2022-08-08T23:10:21.232Z,2.38
2022-08-08T23:16:39.725Z,1.98
2022-08-08T23:20:45.063Z,2.28
2022-08-08T23:25:56.316Z,2.15
2022-08-08T23:30:58.154Z,2.20
2022-08-08T23:36:07.753Z,2.03
2022-08-08T23:41:17.429Z,2.00
2022-08-08T23:49:06.162Z,2.13
2022-08-08T23:52:07.254Z,2.22
2022-08-08T23:57:15.251Z,2.20
